Pagina principale
METAR-TAF:

METAR-TAF

Aeroporti :

Conakry, Guinea

Aeroporto di Conakry

latitudine: 09-34N, longitudine: 013-37W, altezza: 26 m

Osservazione

Il bollettino è stato emesso 4 ore e 9 minuti fa, alle 01:00 UTC
Vento calmo
Temperature 24°C
Umidità 100%
Pressione 1010 hPa
Visibilità: 3000 m
foschia

METAR: GUCY 180100Z 00000KT 3000 BR NSC 24/24 Q1010 NOSIG

Ora: 05:09 (05:09 UTC)

Previsione

Il bollettino è stato emesso 6 ore e 9 minuti fa, alle 23:00 UTC
Previsione valida dal 18 alle 00 UTC al 19 alle 06 UTC
Vento 6 kt da nord/nord-ovest
Visibilità: 5000 m
foschia
Temporaneamente
dal 18 alle 02 UTC al 18 alle 06 UTC
Vento 2 kt da direzioni variabili
Visibilità: 2000 m
Poco nuvoloso ad un'altezza di 1500 ft
foschia
Evoluzione graduale
dal 18 alle 12 UTC al 18 alle 16 UTC
Vento 4 kt da sud-ovest

TAF: GUCY 172300Z 1800/1906 34006KT 5000 HZ NSC TEMPO 1802/1806 VRB02KT 2000 BR FEW015 BECMG 1812/1816 22004KT

Osservazioni e previsioni meteorologiche di più di 4000 aeroporti (messaggi METAR e TAF).

Le stazioni disponibili sono rappresentate dai dischi gialli e rossi sulla carta.

Puntare il mouse per vedere il nome della stazione.

Clicca sopra per visualizzare le osservazioni e previsioni meteorologiche.

Per cambiare la mappa : fare clic sui pulsanti verdi con una croce nera per ingrandire, il pulsante verde con un trattino per diminuire, o sulla freccia verde per le mappe adiacenti.


METAR-TAF: